createdAt,value
2024-05-09T00:00:59.952Z,76.35
2024-05-09T00:03:04.100Z,76.10
2024-05-09T00:05:09.242Z,76.23
2024-05-09T00:07:12.920Z,75.69
2024-05-09T00:09:17.567Z,75.80
2024-05-09T00:11:24.324Z,76.07
2024-05-09T00:13:30.333Z,75.73
2024-05-09T00:15:34.200Z,76.11
2024-05-09T00:17:40.024Z,75.86
2024-05-09T00:19:47.170Z,75.74
2024-05-09T00:21:50.216Z,75.74
2024-05-09T00:23:56.402Z,75.83
2024-05-09T00:26:02.116Z,76.08
2024-05-09T00:28:05.896Z,75.96
2024-05-09T00:30:21.011Z,76.21
2024-05-09T00:32:27.959Z,76.06
2024-05-09T00:34:31.697Z,75.99
2024-05-09T00:36:39.337Z,75.99
2024-05-09T00:38:43.007Z,76.29
2024-05-09T00:40:46.154Z,76.49
2024-05-09T00:42:49.931Z,76.37
2024-05-09T00:44:54.490Z,76.53
2024-05-09T00:46:58.897Z,76.22
2024-05-09T00:49:02.479Z,76.49
2024-05-09T00:51:07.048Z,76.27
2024-05-09T00:53:16.170Z,76.79
2024-05-09T00:55:21.365Z,76.61
2024-05-09T00:57:31.186Z,76.28
2024-05-09T00:59:36.061Z,76.49
2024-05-09T01:01:39.435Z,76.21
2024-05-09T01:03:47.965Z,76.37
2024-05-09T01:05:54.257Z,76.44
2024-05-09T01:07:58.276Z,76.37
2024-05-09T01:10:05.509Z,76.68
2024-05-09T01:12:10.692Z,76.60
2024-05-09T01:14:14.560Z,76.75
2024-05-09T01:16:19.671Z,76.84
2024-05-09T01:18:27.490Z,76.89
2024-05-09T01:20:39.862Z,76.83
2024-05-09T01:22:46.901Z,76.97
2024-05-09T01:24:53.074Z,76.71
2024-05-09T01:26:56.258Z,76.80
2024-05-09T01:29:01.797Z,76.81
2024-05-09T01:31:05.189Z,76.72
2024-05-09T01:33:11.319Z,76.68
2024-05-09T01:35:16.303Z,76.52
2024-05-09T01:37:19.484Z,76.63
2024-05-09T01:39:27.425Z,76.69
2024-05-09T01:41:33.302Z,77.07
2024-05-09T01:43:37.001Z,77.30
2024-05-09T01:45:41.854Z,77.40
2024-05-09T01:47:45.854Z,77.20
2024-05-09T01:49:49.032Z,77.21
2024-05-09T01:51:52.079Z,77.07
2024-05-09T01:53:56.862Z,76.78
2024-05-09T01:56:00.062Z,76.94
2024-05-09T01:58:04.068Z,76.77
2024-05-09T02:00:10.282Z,76.85
2024-05-09T02:02:14.098Z,77.12
2024-05-09T02:04:18.649Z,76.96
2024-05-09T02:06:22.380Z,77.01
2024-05-09T02:08:25.505Z,76.77
2024-05-09T02:10:32.610Z,76.88
2024-05-09T02:12:36.518Z,77.07
2024-05-09T02:14:39.600Z,77.03
2024-05-09T02:16:42.847Z,76.74
2024-05-09T02:18:46.986Z,76.76
2024-05-09T02:20:50.256Z,76.63
2024-05-09T02:22:53.950Z,76.35
2024-05-09T02:24:59.048Z,76.52
2024-05-09T02:27:02.278Z,76.51
2024-05-09T02:29:05.401Z,76.24
2024-05-09T02:31:09.412Z,76.35
2024-05-09T02:33:14.288Z,76.57
2024-05-09T02:35:18.311Z,76.58
2024-05-09T02:37:22.051Z,76.67
2024-05-09T02:39:25.505Z,76.40
2024-05-09T02:41:28.560Z,76.41
2024-05-09T02:43:32.279Z,76.31
2024-05-09T02:45:35.309Z,76.21
2024-05-09T02:47:38.541Z,75.82
2024-05-09T02:49:42.390Z,75.54
2024-05-09T02:51:47.833Z,75.65
2024-05-09T02:53:51.003Z,75.38
2024-05-09T02:55:54.706Z,75.50
2024-05-09T02:57:57.772Z,75.80
2024-05-09T03:00:00.822Z,75.39
2024-05-09T03:02:04.673Z,75.39
2024-05-09T03:04:08.561Z,75.31
2024-05-09T03:06:14.721Z,75.42
2024-05-09T03:08:17.773Z,75.43
2024-05-09T03:10:25.606Z,75.49
2024-05-09T03:12:35.111Z,75.47
2024-05-09T03:14:41.597Z,75.16
2024-05-09T03:16:48.457Z,75.14
2024-05-09T03:18:52.898Z,75.14
2024-05-09T03:21:05.655Z,75.00
2024-05-09T03:23:10.060Z,75.14
2024-05-09T03:25:18.690Z,74.89
2024-05-09T03:27:24.568Z,74.83
2024-05-09T03:29:29.016Z,74.88
2024-05-09T03:31:32.146Z,74.92
2024-05-09T03:33:37.407Z,74.69
2024-05-09T03:35:42.126Z,75.14
2024-05-09T03:37:45.957Z,75.13
2024-05-09T03:39:49.123Z,75.10
2024-05-09T03:41:52.266Z,75.26
2024-05-09T03:44:00.767Z,75.21
2024-05-09T03:46:04.648Z,75.05
2024-05-09T03:48:08.482Z,75.37
2024-05-09T03:50:22.018Z,75.47
2024-05-09T03:52:29.682Z,75.22
2024-05-09T03:54:37.302Z,75.32
2024-05-09T03:56:41.001Z,75.48
2024-05-09T03:58:44.842Z,75.71
2024-05-09T04:00:47.921Z,75.60
2024-05-09T04:02:51.195Z,75.53
2024-05-09T04:04:55.816Z,75.71
2024-05-09T04:06:58.999Z,76.27
2024-05-09T04:09:02.715Z,76.23
2024-05-09T04:11:06.527Z,75.88
2024-05-09T04:13:11.423Z,76.27
2024-05-09T04:15:14.915Z,76.28
2024-05-09T04:17:19.774Z,76.33
2024-05-09T04:19:23.980Z,76.41
2024-05-09T04:21:28.795Z,76.58
2024-05-09T04:23:32.061Z,76.71
2024-05-09T04:25:35.889Z,76.43
2024-05-09T04:27:40.948Z,76.39
2024-05-09T04:29:44.011Z,76.53
2024-05-09T04:31:47.830Z,76.69
2024-05-09T04:33:51.090Z,76.64
2024-05-09T04:35:54.373Z,76.93
2024-05-09T04:37:57.875Z,77.08
2024-05-09T04:40:00.917Z,77.16
2024-05-09T04:42:04.967Z,77.65
2024-05-09T04:44:08.030Z,77.36
2024-05-09T04:46:11.475Z,77.52
2024-05-09T04:48:15.602Z,76.96
2024-05-09T04:50:29.951Z,77.17
2024-05-09T04:52:39.518Z,77.20
2024-05-09T04:54:43.589Z,77.83
2024-05-09T04:56:47.292Z,78.13
2024-05-09T04:58:51.742Z,78.62
2024-05-09T05:00:56.332Z,79.26
2024-05-09T05:03:03.546Z,79.47
2024-05-09T05:05:08.130Z,79.85
2024-05-09T05:07:11.267Z,79.92
2024-05-09T05:09:15.472Z,79.76
2024-05-09T05:11:18.780Z,80.26
2024-05-09T05:13:25.118Z,80.30
2024-05-09T05:15:28.415Z,80.40
2024-05-09T05:17:32.433Z,80.38
2024-05-09T05:19:35.827Z,80.26
2024-05-09T05:21:39.911Z,80.22
2024-05-09T05:23:46.383Z,80.27
2024-05-09T05:25:55.574Z,80.13
2024-05-09T05:28:01.624Z,80.11
2024-05-09T05:30:14.650Z,80.04
2024-05-09T05:32:21.983Z,79.78
2024-05-09T05:34:25.157Z,79.83
2024-05-09T05:36:28.303Z,79.80
2024-05-09T05:38:33.080Z,79.58
2024-05-09T05:40:39.889Z,79.63
2024-05-09T05:42:43.954Z,79.49
2024-05-09T05:44:47.101Z,79.09
2024-05-09T05:46:52.200Z,79.04
2024-05-09T05:48:56.096Z,79.35
2024-05-09T05:51:01.890Z,78.98
2024-05-09T05:53:08.761Z,78.79
2024-05-09T05:55:14.103Z,78.77
2024-05-09T05:57:18.014Z,78.97
2024-05-09T05:59:23.348Z,78.25
2024-05-09T06:01:30.139Z,78.04
2024-05-09T06:03:39.946Z,77.95
2024-05-09T06:05:48.363Z,78.34
2024-05-09T06:07:52.416Z,78.37
2024-05-09T06:09:58.046Z,77.93
2024-05-09T06:12:01.340Z,77.59
2024-05-09T06:14:06.057Z,77.76
2024-05-09T06:16:10.266Z,78.13
2024-05-09T06:18:16.777Z,78.41
2024-05-09T06:20:31.536Z,78.22
2024-05-09T06:22:38.839Z,78.50
2024-05-09T06:24:41.866Z,77.98
2024-05-09T06:26:47.631Z,77.90
2024-05-09T06:28:51.232Z,78.21
2024-05-09T06:30:54.338Z,78.66
2024-05-09T06:32:58.489Z,78.46
2024-05-09T06:35:01.725Z,78.67
2024-05-09T06:37:05.371Z,78.61
2024-05-09T06:39:11.221Z,78.80
2024-05-09T06:41:14.289Z,78.57
2024-05-09T06:43:20.075Z,77.83
2024-05-09T06:45:24.034Z,77.21
2024-05-09T06:47:27.214Z,76.99
2024-05-09T06:49:32.857Z,77.14
2024-05-09T06:51:40.494Z,77.38
2024-05-09T06:53:44.418Z,77.24
2024-05-09T06:55:48.137Z,77.53
2024-05-09T06:57:51.913Z,77.90
2024-05-09T06:59:57.759Z,78.38
2024-05-09T07:02:00.866Z,78.33
2024-05-09T07:04:04.241Z,78.90
2024-05-09T07:06:07.850Z,78.73
2024-05-09T07:08:11.379Z,78.68
2024-05-09T07:10:21.944Z,78.80
2024-05-09T07:12:31.753Z,78.21
2024-05-09T07:14:38.399Z,78.00
2024-05-09T07:16:43.071Z,78.00
2024-05-09T07:18:47.564Z,77.96
2024-05-09T07:20:52.143Z,78.13
2024-05-09T07:22:55.218Z,78.87
2024-05-09T07:24:58.388Z,79.19
2024-05-09T07:27:01.732Z,78.61
2024-05-09T07:29:05.998Z,78.42
2024-05-09T07:31:10.070Z,78.60
2024-05-09T07:33:21.839Z,78.53
2024-05-09T07:35:26.340Z,78.89
2024-05-09T07:37:29.749Z,79.19
2024-05-09T07:39:32.773Z,79.06
2024-05-09T07:41:36.286Z,78.96
2024-05-09T07:43:39.744Z,78.59
2024-05-09T07:45:51.409Z,79.23
2024-05-09T07:49:44.260Z,79.52
2024-05-09T07:54:35.584Z,80.79
2024-05-09T07:56:38.979Z,80.54
2024-05-09T07:58:44.605Z,80.45
2024-05-09T08:00:48.387Z,80.33
2024-05-09T08:02:51.486Z,80.16
2024-05-09T08:04:57.105Z,80.24
2024-05-09T08:07:01.681Z,80.27
2024-05-09T08:09:08.234Z,79.94
2024-05-09T08:11:17.469Z,80.67
2024-05-09T08:13:20.759Z,80.53
2024-05-09T08:15:23.800Z,80.23
2024-05-09T08:17:27.576Z,80.07
2024-05-09T08:19:30.780Z,79.10
2024-05-09T08:21:33.851Z,79.07
2024-05-09T08:23:37.135Z,79.72
2024-05-09T08:25:40.898Z,79.81
2024-05-09T08:27:44.808Z,80.06
2024-05-09T08:29:48.109Z,80.87
2024-05-09T08:31:56.809Z,80.37
2024-05-09T08:34:00.123Z,81.15
2024-05-09T08:36:03.332Z,81.58
2024-05-09T08:38:08.726Z,81.14
2024-05-09T08:40:23.682Z,81.17
2024-05-09T08:42:36.910Z,80.98
2024-05-09T08:44:41.162Z,81.53
2024-05-09T08:46:52.092Z,80.73
2024-05-09T08:48:57.854Z,81.29
2024-05-09T08:51:02.389Z,81.64
2024-05-09T08:53:06.500Z,81.45
2024-05-09T08:55:09.771Z,80.61
2024-05-09T08:57:18.961Z,80.47
2024-05-09T08:59:28.745Z,80.02
2024-05-09T09:01:32.997Z,79.43
2024-05-09T09:03:39.677Z,79.42
2024-05-09T09:05:53.655Z,79.49
2024-05-09T09:07:57.225Z,80.11
2024-05-09T09:10:29.580Z,80.59
2024-05-09T09:12:35.787Z,80.54
2024-05-09T09:14:39.354Z,81.27
2024-05-09T09:16:42.396Z,80.44
2024-05-09T09:18:48.564Z,81.12
2024-05-09T09:20:52.308Z,80.73
2024-05-09T09:22:56.336Z,80.94
2024-05-09T09:24:59.370Z,82.40
2024-05-09T09:27:03.184Z,82.02
2024-05-09T09:29:06.506Z,81.61
2024-05-09T09:31:09.609Z,82.20
2024-05-09T09:33:13.957Z,82.19
2024-05-09T09:35:18.040Z,82.46
2024-05-09T09:37:29.465Z,82.48
2024-05-09T09:39:34.805Z,82.76
2024-05-09T09:41:39.219Z,81.98
2024-05-09T09:43:44.174Z,82.32
2024-05-09T09:45:50.978Z,82.30
2024-05-09T09:47:58.015Z,82.25
2024-05-09T09:50:04.139Z,82.06
2024-05-09T09:52:11.221Z,82.04
2024-05-09T09:54:14.721Z,82.20
2024-05-09T09:56:20.440Z,82.19
2024-05-09T09:58:25.011Z,82.28
2024-05-09T10:00:33.032Z,82.38
2024-05-09T10:02:37.092Z,82.66
2024-05-09T10:04:40.666Z,82.18
2024-05-09T10:07:00.950Z,81.87
2024-05-09T10:09:04.799Z,81.51
2024-05-09T10:11:07.964Z,82.41
2024-05-09T10:13:11.238Z,82.35
2024-05-09T10:15:14.232Z,81.79
2024-05-09T10:17:17.971Z,82.66
2024-05-09T10:19:28.135Z,82.09
2024-05-09T10:21:31.955Z,82.29
2024-05-09T10:37:51.573Z,84.45
2024-05-09T10:39:56.208Z,83.91
2024-05-09T10:41:59.928Z,84.11
2024-05-09T10:44:03.426Z,84.54
2024-05-09T10:46:07.604Z,84.20
2024-05-09T10:48:10.811Z,83.90
2024-05-09T10:50:22.263Z,83.81
2024-05-09T10:52:31.201Z,84.42
2024-05-09T10:54:38.667Z,84.16
2024-05-09T10:56:42.538Z,84.50
2024-05-09T10:58:45.610Z,84.33
2024-05-09T11:00:49.664Z,84.32
2024-05-09T11:02:52.833Z,84.40
2024-05-09T11:04:56.600Z,84.48
2024-05-09T11:07:05.178Z,84.53
2024-05-09T11:09:09.253Z,84.56
2024-05-09T11:11:12.504Z,84.49
2024-05-09T11:13:15.602Z,84.52
2024-05-09T11:15:18.786Z,84.59
2024-05-09T11:17:22.208Z,84.92
2024-05-09T11:19:31.027Z,85.00
2024-05-09T11:21:34.471Z,84.85
2024-05-09T11:23:39.084Z,85.02
2024-05-09T11:25:42.221Z,84.71
2024-05-09T11:27:45.300Z,84.92
2024-05-09T11:29:48.311Z,85.14
2024-05-09T11:31:51.340Z,85.45
2024-05-09T11:33:55.569Z,85.37
2024-05-09T11:35:59.248Z,85.18
2024-05-09T11:38:02.361Z,85.36
2024-05-09T11:40:11.444Z,85.37
2024-05-09T11:42:17.963Z,85.25
2024-05-09T11:44:20.969Z,85.51
2024-05-09T11:46:24.738Z,85.41
2024-05-09T11:48:28.963Z,85.59
2024-05-09T11:50:35.602Z,85.62
2024-05-09T11:52:41.309Z,85.47
2024-05-09T11:54:44.361Z,85.60
2024-05-09T11:56:47.630Z,85.88
2024-05-09T11:58:50.698Z,85.46
2024-05-09T12:00:53.831Z,85.59
2024-05-09T12:02:59.379Z,85.65
2024-05-09T12:05:02.606Z,85.58
2024-05-09T12:07:06.873Z,85.56
2024-05-09T12:09:10.925Z,85.49
2024-05-09T12:11:17.330Z,85.38
2024-05-09T12:13:20.628Z,86.48
2024-05-09T12:15:24.425Z,86.35
2024-05-09T12:17:28.552Z,86.26
2024-05-09T12:19:31.754Z,86.64
2024-05-09T12:21:34.870Z,86.09
2024-05-09T12:23:38.314Z,85.73
2024-05-09T12:25:41.474Z,85.69
2024-05-09T12:27:46.155Z,85.70
2024-05-09T12:29:49.453Z,85.10
2024-05-09T12:31:52.485Z,84.86
2024-05-09T12:33:55.560Z,84.89
2024-05-09T12:35:59.069Z,84.74
2024-05-09T12:38:02.215Z,84.25
2024-05-09T12:40:10.619Z,83.61
2024-05-09T12:42:26.764Z,83.52
2024-05-09T12:44:31.131Z,82.74
2024-05-09T12:46:34.966Z,82.67
2024-05-09T12:48:39.219Z,82.35
2024-05-09T12:50:42.676Z,81.91
2024-05-09T12:52:46.180Z,81.70
2024-05-09T12:54:49.401Z,81.73
2024-05-09T12:56:53.372Z,81.52
2024-05-09T12:58:57.015Z,81.41
2024-05-09T13:01:00.295Z,80.98
2024-05-09T13:03:03.568Z,80.73
2024-05-09T13:05:07.244Z,80.58
2024-05-09T13:07:10.554Z,80.44
2024-05-09T13:09:14.366Z,80.63
2024-05-09T13:11:17.508Z,80.06
2024-05-09T13:13:20.737Z,80.03
2024-05-09T13:15:23.867Z,80.59
2024-05-09T13:17:27.545Z,80.13
2024-05-09T13:19:30.770Z,79.82
2024-05-09T13:21:34.568Z,79.62
2024-05-09T13:23:38.439Z,79.54
2024-05-09T13:25:41.964Z,79.19
2024-05-09T13:27:45.184Z,79.26
2024-05-09T13:29:48.525Z,78.92
2024-05-09T13:31:51.557Z,78.44
2024-05-09T13:33:54.693Z,78.61
2024-05-09T13:35:58.387Z,78.14
2024-05-09T13:38:03.281Z,78.06
2024-05-09T13:40:09.581Z,77.89
2024-05-09T13:42:15.084Z,77.90
2024-05-09T13:44:18.206Z,77.19
2024-05-09T13:46:21.943Z,77.27
2024-05-09T13:48:25.499Z,77.05
2024-05-09T13:50:34.270Z,76.90
2024-05-09T13:52:39.416Z,76.54
2024-05-09T13:54:42.524Z,76.39
2024-05-09T13:56:46.461Z,76.44
2024-05-09T13:58:51.563Z,76.61
2024-05-09T14:00:54.856Z,76.67
2024-05-09T14:02:58.700Z,76.36
2024-05-09T14:05:02.468Z,75.98
2024-05-09T14:07:05.935Z,76.35
2024-05-09T14:09:10.241Z,76.24
2024-05-09T14:11:13.453Z,76.37
2024-05-09T14:13:17.531Z,76.31
2024-05-09T14:15:20.707Z,76.01
2024-05-09T14:17:23.846Z,76.30
2024-05-09T14:19:27.072Z,76.06
2024-05-09T14:21:30.206Z,76.15
2024-05-09T14:23:33.268Z,75.40
2024-05-09T14:25:40.529Z,74.74
2024-05-09T14:27:45.544Z,74.17
2024-05-09T14:29:48.556Z,74.31
2024-05-09T14:31:51.606Z,74.55
2024-05-09T14:33:54.798Z,73.68
2024-05-09T14:35:58.518Z,73.46
2024-05-09T14:38:01.834Z,73.39
2024-05-09T14:40:07.069Z,71.84
2024-05-09T14:42:10.762Z,71.87
2024-05-09T14:44:14.013Z,70.95
2024-05-09T14:46:17.906Z,70.69
2024-05-09T14:48:21.433Z,69.40
2024-05-09T14:50:34.435Z,69.01
2024-05-09T14:52:40.761Z,69.19
2024-05-09T14:54:43.855Z,67.59
2024-05-09T14:56:47.038Z,67.50
2024-05-09T14:58:50.969Z,67.35
2024-05-09T15:00:54.108Z,67.68
2024-05-09T15:02:57.230Z,67.56
2024-05-09T15:05:00.645Z,67.95
2024-05-09T15:07:03.945Z,68.62
2024-05-09T15:09:08.158Z,69.11
2024-05-09T15:11:11.798Z,68.37
2024-05-09T15:13:16.654Z,67.79
2024-05-09T15:15:20.262Z,68.03
2024-05-09T15:17:24.198Z,68.24
2024-05-09T15:19:27.467Z,66.91
2024-05-09T15:21:31.439Z,65.40
2024-05-09T15:23:34.544Z,65.31
2024-05-09T15:25:38.482Z,66.15
2024-05-09T15:27:42.306Z,66.63
2024-05-09T15:29:45.783Z,65.72
2024-05-09T15:31:49.687Z,65.38
2024-05-09T15:33:52.837Z,65.86
2024-05-09T15:35:56.813Z,65.39
2024-05-09T15:38:04.525Z,63.92
2024-05-09T15:40:15.442Z,63.21
2024-05-09T15:42:25.275Z,62.62
2024-05-09T15:44:28.448Z,62.58
2024-05-09T15:46:31.522Z,61.68
2024-05-09T15:48:34.885Z,61.40
2024-05-09T15:50:41.339Z,63.08
2024-05-09T15:52:45.656Z,62.70
2024-05-09T15:54:50.085Z,61.59
2024-05-09T15:56:54.295Z,61.19
2024-05-09T15:58:57.655Z,60.61
2024-05-09T16:01:00.979Z,60.65
2024-05-09T16:03:05.071Z,60.87
2024-05-09T16:05:08.528Z,61.46
2024-05-09T16:07:11.821Z,61.34
2024-05-09T16:09:15.628Z,61.13
2024-05-09T16:11:21.228Z,61.10
2024-05-09T16:13:24.568Z,61.25
2024-05-09T16:15:27.710Z,61.14
2024-05-09T16:17:31.111Z,60.93
2024-05-09T16:19:34.254Z,61.11
2024-05-09T16:21:37.376Z,60.04
2024-05-09T16:23:41.006Z,60.05
2024-05-09T16:25:47.388Z,61.44
2024-05-09T16:27:53.126Z,59.88
2024-05-09T16:29:59.058Z,60.48
2024-05-09T16:32:02.176Z,60.92
2024-05-09T16:34:05.439Z,59.31
2024-05-09T16:36:09.099Z,57.79
2024-05-09T16:38:12.773Z,59.52
2024-05-09T16:40:25.337Z,61.10
2024-05-09T16:42:37.164Z,58.69
2024-05-09T16:44:40.691Z,58.39
2024-05-09T16:46:43.729Z,57.66
2024-05-09T16:48:47.675Z,57.49
2024-05-09T16:50:50.805Z,57.59
2024-05-09T16:52:53.841Z,57.76
2024-05-09T16:54:57.674Z,57.63
2024-05-09T16:57:01.492Z,57.67
2024-05-09T16:59:04.582Z,55.78
2024-05-09T17:01:07.953Z,53.79
2024-05-09T17:03:14.249Z,53.76
2024-05-09T17:05:19.070Z,54.26
2024-05-09T17:07:23.040Z,51.37
2024-05-09T17:09:26.166Z,53.77
2024-05-09T17:11:29.236Z,52.93
2024-05-09T17:13:33.454Z,51.43
2024-05-09T17:15:38.030Z,50.58
2024-05-09T17:17:41.594Z,51.06
2024-05-09T17:19:47.941Z,50.80
2024-05-09T17:21:51.633Z,50.98
2024-05-09T17:23:56.865Z,52.65
2024-05-09T17:25:59.910Z,53.20
2024-05-09T17:28:08.395Z,53.38
2024-05-09T17:30:17.752Z,53.05
2024-05-09T17:32:27.828Z,51.15
2024-05-09T17:34:31.796Z,50.89
2024-05-09T17:36:35.412Z,53.16
2024-05-09T17:38:38.812Z,52.42
2024-05-09T17:40:41.978Z,53.00
2024-05-09T17:42:45.126Z,51.42
2024-05-09T17:44:48.541Z,53.03
2024-05-09T17:46:51.670Z,52.83
2024-05-09T17:48:56.457Z,52.83
2024-05-09T17:51:00.441Z,50.79
2024-05-09T17:53:03.796Z,51.00
2024-05-09T17:55:08.531Z,50.48
2024-05-09T17:57:11.823Z,52.32
2024-05-09T17:59:15.261Z,51.60
2024-05-09T18:01:18.464Z,53.63
2024-05-09T18:03:24.412Z,53.67
2024-05-09T18:05:29.577Z,52.88
2024-05-09T18:07:42.483Z,52.11
2024-05-09T18:09:46.744Z,52.03
2024-05-09T18:11:49.970Z,51.89
2024-05-09T18:13:55.512Z,53.72
2024-05-09T18:15:58.973Z,52.53
2024-05-09T18:18:03.801Z,50.31
2024-05-09T18:20:11.292Z,49.07
2024-05-09T18:22:17.588Z,48.70
2024-05-09T18:24:22.571Z,49.41
2024-05-09T18:26:26.047Z,49.49
2024-05-09T18:28:30.031Z,49.61
2024-05-09T18:30:35.575Z,49.66
2024-05-09T18:32:40.212Z,48.24
2024-05-09T18:34:43.347Z,49.07
2024-05-09T18:36:47.212Z,48.46
2024-05-09T18:38:50.695Z,48.57
2024-05-09T18:40:55.161Z,48.41
2024-05-09T18:42:58.317Z,47.78
2024-05-09T18:45:01.897Z,48.13
2024-05-09T18:47:05.619Z,48.82
2024-05-09T18:49:09.144Z,48.85
2024-05-09T18:51:12.328Z,48.85
2024-05-09T18:53:16.535Z,48.00
2024-05-09T18:55:19.780Z,48.49
2024-05-09T18:57:22.893Z,48.29
2024-05-09T18:59:25.962Z,48.42
2024-05-09T19:01:29.360Z,46.63
2024-05-09T19:03:32.810Z,46.63
2024-05-09T19:05:36.930Z,45.47
2024-05-09T19:07:40.059Z,46.61
2024-05-09T19:09:43.149Z,47.14
2024-05-09T19:11:46.274Z,46.93
2024-05-09T19:13:49.488Z,46.21
2024-05-09T19:15:52.985Z,47.61
2024-05-09T19:17:56.200Z,47.24
2024-05-09T19:19:59.408Z,47.48
2024-05-09T19:22:06.847Z,46.04
2024-05-09T19:24:10.768Z,45.49
2024-05-09T19:26:14.129Z,46.15
2024-05-09T19:28:17.366Z,45.18
2024-05-09T19:30:29.355Z,44.15
2024-05-09T19:32:40.408Z,44.22
2024-05-09T19:34:43.580Z,44.18
2024-05-09T19:36:46.865Z,44.72
2024-05-09T19:38:52.281Z,44.70
2024-05-09T19:40:55.536Z,43.37
2024-05-09T19:42:58.818Z,42.92
2024-05-09T19:45:04.588Z,43.24
2024-05-09T19:47:07.793Z,44.21
2024-05-09T19:49:11.263Z,44.08
2024-05-09T19:51:14.725Z,45.07
2024-05-09T19:53:17.865Z,45.14
2024-05-09T19:55:20.953Z,44.51
2024-05-09T19:57:24.070Z,44.39
2024-05-09T19:59:27.173Z,44.15
2024-05-09T20:01:30.255Z,44.25
2024-05-09T20:03:37.377Z,44.46
2024-05-09T20:05:40.862Z,44.64
2024-05-09T20:07:44.625Z,43.93
2024-05-09T20:09:47.819Z,43.90
2024-05-09T20:11:50.912Z,44.19
2024-05-09T20:13:53.994Z,44.56
2024-05-09T20:15:57.228Z,44.30
2024-05-09T20:18:01.076Z,44.81
2024-05-09T20:20:07.331Z,43.80
2024-05-09T20:22:10.644Z,44.78
2024-05-09T20:24:13.961Z,44.90
2024-05-09T20:26:17.063Z,44.62
2024-05-09T20:28:20.229Z,44.76
2024-05-09T20:30:30.550Z,44.08
2024-05-09T20:32:35.787Z,43.92
2024-05-09T20:34:38.953Z,43.56
2024-05-09T20:36:42.129Z,43.50
2024-05-09T20:38:45.245Z,43.63
2024-05-09T20:40:49.433Z,43.60
2024-05-09T20:42:53.511Z,43.33
2024-05-09T20:44:56.588Z,42.79
2024-05-09T20:46:59.664Z,41.94
2024-05-09T20:49:02.903Z,42.08
2024-05-09T20:51:06.296Z,42.74
2024-05-09T20:53:14.549Z,42.82
2024-05-09T20:55:18.627Z,43.22
2024-05-09T20:57:21.679Z,43.33
2024-05-09T20:59:24.764Z,43.01
2024-05-09T21:01:27.922Z,42.76
2024-05-09T21:03:35.349Z,43.18
2024-05-09T21:05:38.676Z,44.23
2024-05-09T21:07:41.899Z,44.23
2024-05-09T21:09:44.941Z,44.78
2024-05-09T21:11:48.028Z,44.36
2024-05-09T21:13:52.534Z,46.12
2024-05-09T21:15:55.706Z,46.05
2024-05-09T21:17:59.146Z,45.92
2024-05-09T21:20:02.875Z,45.97
2024-05-09T21:22:06.127Z,45.71
2024-05-09T21:24:09.456Z,45.97
2024-05-09T21:26:13.419Z,46.08
2024-05-09T21:28:16.667Z,45.49
2024-05-09T21:30:31.289Z,44.45
2024-05-09T21:32:41.967Z,44.33
2024-05-09T21:34:45.078Z,44.60
2024-05-09T21:36:48.282Z,43.84
2024-05-09T21:38:51.398Z,43.22
2024-05-09T21:40:55.402Z,43.89
2024-05-09T21:42:59.329Z,45.26
2024-05-09T21:45:03.167Z,45.08
2024-05-09T21:47:06.331Z,45.55
2024-05-09T21:49:09.596Z,45.64
2024-05-09T21:51:16.752Z,45.92
2024-05-09T21:53:19.895Z,45.97
2024-05-09T21:55:23.831Z,46.32
2024-05-09T21:57:27.519Z,46.51
2024-05-09T21:59:31.216Z,46.55
2024-05-09T22:01:36.457Z,46.83
2024-05-09T22:03:40.334Z,47.81
2024-05-09T22:05:45.347Z,49.06
2024-05-09T22:07:48.626Z,46.54
2024-05-09T22:09:51.672Z,47.29
2024-05-09T22:11:56.588Z,45.59
2024-05-09T22:14:00.747Z,45.53
2024-05-09T22:16:06.831Z,46.57
2024-05-09T22:18:11.398Z,46.68
2024-05-09T22:20:28.853Z,47.54
2024-05-09T22:22:38.986Z,47.75
2024-05-09T22:24:42.582Z,48.18
2024-05-09T22:26:45.658Z,47.00
2024-05-09T22:28:48.683Z,48.63
2024-05-09T22:30:53.463Z,48.71
2024-05-09T22:32:57.209Z,48.25
2024-05-09T22:35:00.609Z,48.39
2024-05-09T22:37:04.430Z,49.73
2024-05-09T22:39:08.888Z,50.04
2024-05-09T22:41:12.537Z,50.05
2024-05-09T22:43:19.662Z,49.83
2024-05-09T22:45:23.673Z,50.47
2024-05-09T22:47:26.861Z,50.31
2024-05-09T22:49:29.995Z,50.64
2024-05-09T22:51:33.194Z,51.25
2024-05-09T22:53:36.287Z,51.12
2024-05-09T22:55:39.351Z,51.45
2024-05-09T22:57:42.467Z,51.08
2024-05-09T22:59:45.592Z,50.53
2024-05-09T23:01:48.704Z,49.84
2024-05-09T23:03:55.279Z,49.97
2024-05-09T23:05:58.394Z,50.32
2024-05-09T23:08:04.444Z,51.70
2024-05-09T23:10:13.363Z,51.94
2024-05-09T23:12:20.405Z,52.14
2024-05-09T23:14:23.457Z,51.85
2024-05-09T23:16:26.623Z,52.06
2024-05-09T23:18:29.995Z,53.69
2024-05-09T23:20:37.897Z,52.52
2024-05-09T23:22:42.827Z,53.21
2024-05-09T23:24:45.895Z,53.67
2024-05-09T23:26:49.012Z,54.20
2024-05-09T23:28:52.088Z,54.38
2024-05-09T23:30:55.138Z,54.37
2024-05-09T23:32:58.328Z,53.87
2024-05-09T23:35:01.532Z,54.79
2024-05-09T23:37:05.554Z,54.42
2024-05-09T23:39:09.416Z,54.53
2024-05-09T23:41:12.893Z,54.78
2024-05-09T23:43:16.441Z,55.08
2024-05-09T23:45:19.547Z,55.33
2024-05-09T23:47:23.264Z,55.37
2024-05-09T23:49:26.406Z,55.49
2024-05-09T23:51:29.917Z,55.72
2024-05-09T23:53:32.966Z,55.49
2024-05-09T23:55:36.078Z,56.23
2024-05-09T23:57:39.125Z,55.98
2024-05-09T23:59:42.375Z,55.72
